Time;durP1;ratioP1;P1;durP2;ratioP2;P2;SDS_P1;SDS_P2;PMS_P1;PMS_P2;Temp;Humidity;BMP_temperature;BMP_pressure;BME280_temperature;BME280_humidity;BME280_pressure;Samples;Min_cycle;Max_cycle;Signal;HPM_P1;HPM_P2
2021/06/04 00:00:14;;;;;;;6.60;5.40;;;;;;;;;;5054766;28;20469;-59
2021/06/04 00:02:41;;;;;;;14.47;10.73;;;;;;;;;;5054982;28;20445;-53
2021/06/04 00:05:15;;;;;;;10.23;6.17;;;;;;;;;;5055158;28;20418;-53
2021/06/04 00:07:46;;;;;;;8.57;6.80;;;;;;;;;;5054934;28;20468;-55
2021/06/04 00:10:14;;;;;;;11.37;7.13;;;;;;;;;;5055247;28;20536;-53
2021/06/04 00:12:41;;;;;;;8.23;7.13;;;;;;;;;;5055473;28;20469;-56
2021/06/04 00:15:10;;;;;;;10.50;7.97;;;;;;;;;;5055751;28;20494;-57
2021/06/04 00:17:38;;;;;;;7.83;6.27;;;;;;;;;;5055376;28;20470;-56
2021/06/04 00:20:07;;;;;;;8.27;5.87;;;;;;;;;;5054941;28;20486;-60
2021/06/04 00:22:34;;;;;;;8.60;5.97;;;;;;;;;;5045452;28;20458;-56
2021/06/04 00:25:09;;;;;;;7.70;5.47;;;;;;;;;;5040192;28;20442;-55
2021/06/04 00:27:36;;;;;;;11.27;7.40;;;;;;;;;;5048310;28;20533;-60
2021/06/04 00:30:04;;;;;;;8.03;7.20;;;;;;;;;;5034904;28;20465;-55
2021/06/04 00:32:30;;;;;;;11.90;10.50;;;;;;;;;;5034442;28;20458;-57
2021/06/04 00:34:59;;;;;;;7.33;6.20;;;;;;;;;;5050503;28;20469;-52
2021/06/04 00:37:26;;;;;;;10.80;8.20;;;;;;;;;;5054755;28;20478;-54
2021/06/04 00:39:53;;;;;;;6.77;5.67;;;;;;;;;;5054029;28;20462;-57
2021/06/04 00:42:21;;;;;;;12.17;8.10;;;;;;;;;;5055433;28;20496;-57
2021/06/04 00:44:50;;;;;;;8.70;7.80;;;;;;;;;;5054700;28;20504;-53
2021/06/04 00:47:17;;;;;;;7.67;6.70;;;;;;;;;;5054740;28;20473;-60
2021/06/04 00:49:59;;;;;;;10.70;8.67;;;;;;;;;;5057284;28;20502;-54
2021/06/04 00:52:28;;;;;;;13.60;11.67;;;;;;;;;;5057842;28;20462;-55
2021/06/04 00:54:56;;;;;;;14.20;11.80;;;;;;;;;;5058029;28;20481;-58
2021/06/04 00:57:24;;;;;;;9.60;7.33;;;;;;;;;;5058029;28;20454;-56
2021/06/04 01:00:00;;;;;;;26.30;19.77;;;;;;;;;;5058093;28;20565;-61
2021/06/04 01:02:27;;;;;;;19.90;14.13;;;;;;;;;;5057597;28;20464;-61
2021/06/04 01:04:55;;;;;;;19.37;15.20;;;;;;;;;;5058179;28;20442;-57
2021/06/04 01:07:24;;;;;;;18.47;15.07;;;;;;;;;;5057737;28;20521;-58
2021/06/04 01:09:59;;;;;;;38.00;22.63;;;;;;;;;;5057490;28;20458;-55
2021/06/04 01:12:33;;;;;;;6.50;5.90;;;;;;;;;;5057944;28;20552;-57
2021/06/04 01:15:03;;;;;;;7.23;5.87;;;;;;;;;;5057962;28;20484;-60
2021/06/04 01:17:34;;;;;;;6.73;6.03;;;;;;;;;;5058550;28;20458;-52
2021/06/04 01:20:04;;;;;;;6.27;5.20;;;;;;;;;;5058017;28;20701;-55
2021/06/04 01:22:39;;;;;;;7.40;5.23;;;;;;;;;;5058114;28;20489;-58
2021/06/04 01:25:11;;;;;;;8.60;5.43;;;;;;;;;;5057903;28;20457;-61
2021/06/04 01:27:41;;;;;;;6.60;5.30;;;;;;;;;;5058039;28;20442;-56
2021/06/04 01:30:22;;;;;;;7.63;5.63;;;;;;;;;;5058080;28;20442;-58
2021/06/04 01:32:50;;;;;;;6.70;6.00;;;;;;;;;;5058363;28;20434;-53
2021/06/04 01:35:20;;;;;;;5.80;5.07;;;;;;;;;;5058076;28;20500;-55
2021/06/04 01:37:47;;;;;;;7.67;5.80;;;;;;;;;;5058083;28;20533;-60
2021/06/04 01:40:16;;;;;;;8.23;6.67;;;;;;;;;;5058415;28;20549;-60
2021/06/04 01:42:46;;;;;;;14.07;7.80;;;;;;;;;;5058468;28;20578;-57
2021/06/04 01:45:22;;;;;;;7.93;6.33;;;;;;;;;;5058373;28;20446;-54
2021/06/04 01:47:52;;;;;;;9.20;6.50;;;;;;;;;;5058329;28;20448;-57
2021/06/04 01:50:20;;;;;;;9.20;5.90;;;;;;;;;;5057799;28;20513;-59
2021/06/04 01:52:48;;;;;;;7.43;6.27;;;;;;;;;;5058274;28;20454;-56
2021/06/04 01:55:17;;;;;;;8.60;5.93;;;;;;;;;;5058012;28;20474;-62
2021/06/04 01:57:50;;;;;;;7.90;6.57;;;;;;;;;;5057949;28;20513;-57
2021/06/04 02:00:18;;;;;;;8.20;6.73;;;;;;;;;;5057038;28;20458;-56
2021/06/04 02:02:46;;;;;;;7.50;5.83;;;;;;;;;;5057968;28;20457;-57
2021/06/04 02:05:16;;;;;;;7.97;5.53;;;;;;;;;;5057934;28;20442;-54
2021/06/04 02:07:44;;;;;;;8.80;6.67;;;;;;;;;;5057830;28;20462;-59
2021/06/04 02:10:13;;;;;;;10.00;6.90;;;;;;;;;;5058110;28;20504;-61
2021/06/04 02:12:41;;;;;;;6.83;5.90;;;;;;;;;;5057941;28;20450;-59
2021/06/04 02:15:12;;;;;;;7.33;6.10;;;;;;;;;;5057498;28;20485;-55
2021/06/04 02:17:49;;;;;;;8.63;6.17;;;;;;;;;;5057662;28;20461;-57
2021/06/04 02:20:20;;;;;;;8.03;6.07;;;;;;;;;;5054024;28;20526;-58
2021/06/04 02:22:53;;;;;;;7.73;6.93;;;;;;;;;;5037224;28;20502;-59
2021/06/04 02:25:26;;;;;;;8.40;6.70;;;;;;;;;;5037374;28;20510;-56
2021/06/04 02:27:55;;;;;;;8.90;6.57;;;;;;;;;;5037802;28;20458;-56
2021/06/04 02:30:27;;;;;;;7.13;6.20;;;;;;;;;;5037226;28;20482;-57
2021/06/04 02:32:59;;;;;;;7.90;6.10;;;;;;;;;;5037716;28;20424;-57
2021/06/04 02:35:33;;;;;;;8.73;6.87;;;;;;;;;;5036837;28;20536;-59
2021/06/04 02:38:14;;;;;;;;;;;;;;;;;;;;;
2021/06/04 02:40:44;;;;;;;9.83;7.77;;;;;;;;;;5037483;28;20454;-57
2021/06/04 02:43:12;;;;;;;8.00;6.83;;;;;;;;;;5036444;28;20490;-60
2021/06/04 02:45:42;;;;;;;11.67;7.80;;;;;;;;;;5037397;28;20454;-55
2021/06/04 02:48:11;;;;;;;10.00;7.57;;;;;;;;;;5037617;28;20437;-57
2021/06/04 02:50:40;;;;;;;10.33;6.73;;;;;;;;;;5037827;28;20436;-59
2021/06/04 02:53:14;;;;;;;7.30;6.60;;;;;;;;;;5037122;28;20462;-57
2021/06/04 02:55:45;;;;;;;8.30;6.80;;;;;;;;;;5037587;28;20900;-51
2021/06/04 02:58:11;;;;;;;7.20;6.33;;;;;;;;;;5037353;28;20457;-59
2021/06/04 03:00:42;;;;;;;7.80;6.53;;;;;;;;;;5037068;28;20513;-61
2021/06/04 03:03:09;;;;;;;7.77;6.97;;;;;;;;;;5037333;28;20471;-58
2021/06/04 03:05:42;;;;;;;7.70;6.90;;;;;;;;;;5037468;28;20486;-58
2021/06/04 03:08:09;;;;;;;10.83;7.47;;;;;;;;;;5037411;28;20465;-58
2021/06/04 03:10:39;;;;;;;7.47;6.73;;;;;;;;;;5037072;28;20503;-56
2021/06/04 03:13:13;;;;;;;11.40;7.20;;;;;;;;;;5036990;28;20518;-54
2021/06/04 03:15:43;;;;;;;8.53;6.63;;;;;;;;;;5049423;28;20473;-58
2021/06/04 03:18:15;;;;;;;7.97;7.07;;;;;;;;;;5056700;28;20468;-60
2021/06/04 03:21:00;;;;;;;10.80;6.83;;;;;;;;;;5056818;28;20450;-58
2021/06/04 03:23:35;;;;;;;8.40;7.60;;;;;;;;;;5055012;28;20498;-56
2021/06/04 03:26:03;;;;;;;8.70;7.60;;;;;;;;;;5056492;28;20473;-55
2021/06/04 03:28:30;;;;;;;10.43;7.23;;;;;;;;;;5056465;28;20449;-56
2021/06/04 03:30:59;;;;;;;10.47;8.63;;;;;;;;;;5056024;28;20525;-61
2021/06/04 03:33:34;;;;;;;11.20;8.60;;;;;;;;;;5056788;28;20441;-55
2021/06/04 03:36:01;;;;;;;8.43;7.50;;;;;;;;;;5056521;28;20493;-59
2021/06/04 03:38:28;;;;;;;9.20;7.07;;;;;;;;;;5056672;28;20458;-56
2021/06/04 03:40:55;;;;;;;8.37;7.47;;;;;;;;;;5056232;28;20458;-57
2021/06/04 03:43:23;;;;;;;8.40;7.53;;;;;;;;;;5056802;28;20442;-52
2021/06/04 03:45:51;;;;;;;9.40;7.83;;;;;;;;;;5056268;28;20410;-56
2021/06/04 03:48:21;;;;;;;11.40;6.60;;;;;;;;;;5055593;28;20454;-55
2021/06/04 03:50:51;;;;;;;8.63;7.03;;;;;;;;;;5055838;28;20453;-55
2021/06/04 03:53:18;;;;;;;18.00;13.67;;;;;;;;;;5055382;28;20450;-55
2021/06/04 03:55:45;;;;;;;9.20;6.47;;;;;;;;;;5052745;28;20490;-56
2021/06/04 03:58:14;;;;;;;7.83;6.77;;;;;;;;;;5055071;28;20442;-55
2021/06/04 04:00:42;;;;;;;8.00;6.57;;;;;;;;;;5055317;28;20516;-58
2021/06/04 04:03:10;;;;;;;9.30;7.00;;;;;;;;;;5055851;28;20446;-54
2021/06/04 04:05:38;;;;;;;9.30;7.13;;;;;;;;;;5055400;28;20477;-54
2021/06/04 04:08:05;;;;;;;11.70;7.73;;;;;;;;;;5055784;28;20490;-55
2021/06/04 04:10:32;;;;;;;8.23;7.23;;;;;;;;;;5055743;28;20547;-54
2021/06/04 04:13:00;;;;;;;8.20;7.40;;;;;;;;;;5043791;28;20463;-60
2021/06/04 04:15:32;;;;;;;10.90;8.40;;;;;;;;;;5041306;28;20505;-52
2021/06/04 04:17:59;;;;;;;7.40;6.63;;;;;;;;;;5055650;28;20457;-55
2021/06/04 04:20:27;;;;;;;11.23;7.07;;;;;;;;;;5055179;28;20458;-51
2021/06/04 04:22:56;;;;;;;9.83;7.20;;;;;;;;;;5054841;28;20473;-56
2021/06/04 04:25:23;;;;;;;8.03;7.23;;;;;;;;;;5059333;28;20454;-53
2021/06/04 04:27:52;;;;;;;7.30;6.57;;;;;;;;;;5049027;28;20447;-56
2021/06/04 04:30:20;;;;;;;10.80;7.57;;;;;;;;;;5053817;28;20549;-58
2021/06/04 04:32:46;;;;;;;12.43;8.43;;;;;;;;;;5059211;28;20464;-57
2021/06/04 04:35:16;;;;;;;10.10;7.80;;;;;;;;;;5059056;28;20531;-57
2021/06/04 04:37:43;;;;;;;8.90;7.37;;;;;;;;;;5059149;28;20466;-57
2021/06/04 04:40:12;;;;;;;8.83;7.43;;;;;;;;;;5058890;28;20457;-53
2021/06/04 04:42:39;;;;;;;8.17;7.33;;;;;;;;;;5058670;28;20448;-56
2021/06/04 04:45:18;;;;;;;9.90;8.23;;;;;;;;;;5058878;28;20472;-57
2021/06/04 04:47:46;;;;;;;9.47;7.33;;;;;;;;;;5048752;28;20474;-63
2021/06/04 04:50:14;;;;;;;8.20;7.30;;;;;;;;;;5058758;28;20457;-58
2021/06/04 04:53:05;;;;;;;8.23;7.33;;;;;;;;;;5055857;28;20446;-56
2021/06/04 04:55:35;;;;;;;8.23;7.33;;;;;;;;;;5049566;28;20538;-60
2021/06/04 04:58:02;;;;;;;12.83;7.60;;;;;;;;;;5058125;28;20461;-57
2021/06/04 05:00:29;;;;;;;9.93;8.13;;;;;;;;;;5058507;28;20441;-53
2021/06/04 05:02:56;;;;;;;12.43;7.50;;;;;;;;;;5058533;28;20441;-59
2021/06/04 05:05:33;;;;;;;9.70;8.70;;;;;;;;;;5058051;28;20513;-59
2021/06/04 05:07:59;;;;;;;11.40;8.60;;;;;;;;;;5057991;28;20456;-58
2021/06/04 05:10:27;;;;;;;8.40;7.60;;;;;;;;;;5058220;28;20464;-56
2021/06/04 05:12:57;;;;;;;8.93;8.00;;;;;;;;;;5043941;28;20463;-60
2021/06/04 05:15:26;;;;;;;10.90;8.30;;;;;;;;;;5048478;28;20485;-58
2021/06/04 05:17:55;;;;;;;13.50;10.07;;;;;;;;;;5057677;28;20706;-57
2021/06/04 05:20:28;;;;;;;9.70;8.70;;;;;;;;;;5058191;28;20462;-59
2021/06/04 05:22:57;;;;;;;13.97;8.57;;;;;;;;;;5057346;28;20474;-60
2021/06/04 05:25:42;;;;;;;12.30;9.93;;;;;;;;;;5057959;28;20462;-60
2021/06/04 05:28:39;;;;;;;13.37;9.00;;;;;;;;;;5050417;28;20442;-58
2021/06/04 05:31:18;;;;;;;10.57;7.83;;;;;;;;;;5057645;28;20521;-60
2021/06/04 05:33:58;;;;;;;10.00;8.73;;;;;;;;;;5046757;28;20485;-60
2021/06/04 05:36:31;;;;;;;12.63;9.57;;;;;;;;;;5050199;28;20493;-60
2021/06/04 05:39:07;;;;;;;10.57;8.80;;;;;;;;;;5050259;28;20450;-56
2021/06/04 05:41:34;;;;;;;10.80;9.33;;;;;;;;;;5047115;28;20457;-51
2021/06/04 05:44:03;;;;;;;13.83;10.20;;;;;;;;;;5052240;28;20472;-60
2021/06/04 05:46:43;;;;;;;13.20;9.57;;;;;;;;;;5044004;28;20461;-59
2021/06/04 05:49:12;;;;;;;8.40;7.50;;;;;;;;;;5042605;28;20466;-59
2021/06/04 05:51:56;;;;;;;9.83;8.80;;;;;;;;;;5039302;28;20522;-58
2021/06/04 05:54:25;;;;;;;9.97;8.97;;;;;;;;;;5052196;28;20454;-59
2021/06/04 05:56:59;;;;;;;10.70;9.60;;;;;;;;;;5054154;28;20443;-55
2021/06/04 05:59:27;;;;;;;12.20;9.10;;;;;;;;;;5037894;28;20478;-58
2021/06/04 06:01:54;;;;;;;11.97;10.60;;;;;;;;;;5039782;28;20443;-54
2021/06/04 06:04:33;;;;;;;9.10;8.20;;;;;;;;;;5049037;28;20461;-57
2021/06/04 06:07:00;;;;;;;10.07;8.30;;;;;;;;;;5057623;28;20465;-53
2021/06/04 06:09:27;;;;;;;10.93;8.90;;;;;;;;;;5053188;28;20453;-57
2021/06/04 06:12:17;;;;;;;12.83;8.80;;;;;;;;;;5055791;28;20466;-59
2021/06/04 06:14:46;;;;;;;11.17;8.50;;;;;;;;;;5050320;28;20470;-54
2021/06/04 06:17:13;;;;;;;11.13;8.47;;;;;;;;;;5046657;28;20438;-56
2021/06/04 06:19:41;;;;;;;12.80;7.90;;;;;;;;;;5042010;28;20490;-56
2021/06/04 06:22:14;;;;;;;11.97;8.60;;;;;;;;;;5051041;28;20475;-56
2021/06/04 06:24:41;;;;;;;11.17;6.97;;;;;;;;;;5036933;28;20465;-58
2021/06/04 06:27:09;;;;;;;9.33;8.03;;;;;;;;;;5041672;28;20450;-54
2021/06/04 06:29:46;;;;;;;13.00;9.00;;;;;;;;;;5042245;28;20691;-58
2021/06/04 06:32:22;;;;;;;13.30;9.70;;;;;;;;;;5048274;28;20490;-58
2021/06/04 06:35:02;;;;;;;10.20;7.70;;;;;;;;;;5043040;28;20478;-56
2021/06/04 06:37:29;;;;;;;10.03;7.63;;;;;;;;;;5038384;28;20596;-61
2021/06/04 06:39:56;;;;;;;10.00;7.93;;;;;;;;;;5055226;28;20457;-55
2021/06/04 06:42:23;;;;;;;11.27;8.80;;;;;;;;;;5042169;28;20451;-59
2021/06/04 06:44:57;;;;;;;9.17;8.23;;;;;;;;;;5035598;28;20451;-57
2021/06/04 06:47:34;;;;;;;12.40;9.30;;;;;;;;;;5042051;28;20461;-57
2021/06/04 06:50:04;;;;;;;11.23;8.07;;;;;;;;;;5050667;28;20450;-56
2021/06/04 06:52:33;;;;;;;11.13;9.27;;;;;;;;;;5044774;28;20465;-61
2021/06/04 06:55:03;;;;;;;11.10;8.57;;;;;;;;;;5042799;28;20494;-56
2021/06/04 06:57:36;;;;;;;13.10;9.23;;;;;;;;;;5035259;28;20464;-58
2021/06/04 07:00:14;;;;;;;9.40;8.40;;;;;;;;;;5034375;28;20470;-55
2021/06/04 07:02:42;;;;;;;10.53;8.20;;;;;;;;;;5035204;28;20446;-57
2021/06/04 07:05:10;;;;;;;10.30;8.37;;;;;;;;;;5034249;28;20494;-53
2021/06/04 07:07:39;;;;;;;9.87;8.10;;;;;;;;;;5034954;28;20459;-60
2021/06/04 07:10:08;;;;;;;10.10;7.77;;;;;;;;;;5038537;28;20454;-57
2021/06/04 07:12:35;;;;;;;12.43;9.60;;;;;;;;;;5042753;28;20442;-60
2021/06/04 07:15:02;;;;;;;15.27;8.60;;;;;;;;;;5038365;28;20485;-59
2021/06/04 07:17:30;;;;;;;11.33;8.80;;;;;;;;;;5035500;28;20479;-58
2021/06/04 07:19:58;;;;;;;10.27;9.17;;;;;;;;;;5050198;28;20466;-57
2021/06/04 07:22:25;;;;;;;10.10;7.80;;;;;;;;;;5052954;28;20458;-58
2021/06/04 07:24:52;;;;;;;9.43;7.90;;;;;;;;;;5052192;28;20482;-57
2021/06/04 07:27:28;;;;;;;10.73;8.03;;;;;;;;;;5052993;28;20458;-59
2021/06/04 07:29:55;;;;;;;10.50;8.10;;;;;;;;;;5052674;28;20553;-59
2021/06/04 07:32:22;;;;;;;9.17;8.23;;;;;;;;;;5048458;28;20474;-53
2021/06/04 07:34:58;;;;;;;10.93;9.37;;;;;;;;;;5032635;28;20761;-60
2021/06/04 07:37:26;;;;;;;9.03;7.93;;;;;;;;;;5033415;28;20532;-60
2021/06/04 07:39:53;;;;;;;10.70;8.50;;;;;;;;;;5032820;28;20466;-58
2021/06/04 07:42:35;;;;;;;10.33;9.23;;;;;;;;;;5036817;28;20439;-57
2021/06/04 07:45:21;;;;;;;9.80;8.50;;;;;;;;;;5033223;28;20518;-54
2021/06/04 07:47:48;;;;;;;12.37;8.03;;;;;;;;;;5033242;28;20489;-58
2021/06/04 07:50:15;;;;;;;10.17;8.97;;;;;;;;;;5031994;28;20906;-60
2021/06/04 07:52:43;;;;;;;14.57;8.60;;;;;;;;;;5031646;28;20455;-59
2021/06/04 07:55:12;;;;;;;11.20;8.90;;;;;;;;;;5031925;28;20471;-55
2021/06/04 07:57:40;;;;;;;14.17;9.67;;;;;;;;;;5031571;28;20427;-56
2021/06/04 08:00:10;;;;;;;13.87;9.63;;;;;;;;;;5035704;28;20525;-54
2021/06/04 08:02:37;;;;;;;16.50;10.93;;;;;;;;;;5034385;28;20755;-57
2021/06/04 08:05:06;;;;;;;12.43;8.47;;;;;;;;;;5035931;28;20451;-58
2021/06/04 08:07:46;;;;;;;9.80;7.97;;;;;;;;;;5035393;28;20485;-50
2021/06/04 08:10:25;;;;;;;14.83;8.47;;;;;;;;;;5035291;28;20458;-56
2021/06/04 08:13:13;;;;;;;10.70;7.90;;;;;;;;;;5043970;28;20451;-56
2021/06/04 08:15:50;;;;;;;9.67;7.80;;;;;;;;;;5033496;28;20482;-58
2021/06/04 08:18:25;;;;;;;12.77;8.53;;;;;;;;;;5035447;28;20504;-60
2021/06/04 08:21:06;;;;;;;12.47;8.37;;;;;;;;;;5048256;28;20441;-57
2021/06/04 08:23:40;;;;;;;14.23;10.70;;;;;;;;;;5049585;28;20481;-57
2021/06/04 08:26:11;;;;;;;11.10;10.00;;;;;;;;;;5033684;28;20475;-56
2021/06/04 08:28:39;;;;;;;12.93;8.20;;;;;;;;;;5034903;28;20534;-57
2021/06/04 08:33:57;;;;;;;15.87;10.23;;;;;;;;;;5043426;28;20438;-53
2021/06/04 08:36:31;;;;;;;13.80;9.33;;;;;;;;;;5040044;28;20471;-57
2021/06/04 08:39:17;;;;;;;14.60;9.50;;;;;;;;;;5045833;28;20508;-59
2021/06/04 08:41:57;;;;;;;11.50;8.93;;;;;;;;;;5046639;28;20473;-59
2021/06/04 08:44:34;;;;;;;13.30;9.83;;;;;;;;;;5035270;28;20463;-56
2021/06/04 08:47:02;;;;;;;11.80;9.90;;;;;;;;;;5033324;28;20458;-59
2021/06/04 08:49:33;;;;;;;11.40;9.03;;;;;;;;;;5032956;28;20451;-59
2021/06/04 08:52:22;;;;;;;11.87;10.40;;;;;;;;;;5044629;28;20447;-56
2021/06/04 08:54:55;;;;;;;20.63;10.83;;;;;;;;;;5032952;28;20439;-54
2021/06/04 08:57:32;;;;;;;11.37;9.30;;;;;;;;;;5033008;28;20419;-57
2021/06/04 09:00:00;;;;;;;11.40;10.17;;;;;;;;;;5041321;28;20464;-58
2021/06/04 09:02:32;;;;;;;12.07;9.20;;;;;;;;;;5050406;28;20466;-59
2021/06/04 09:05:01;;;;;;;12.53;9.13;;;;;;;;;;5053225;28;20460;-58
2021/06/04 09:07:29;;;;;;;11.70;8.07;;;;;;;;;;5054663;28;20715;-55
2021/06/04 09:10:06;;;;;;;14.93;10.67;;;;;;;;;;5053859;28;20430;-56
2021/06/04 09:12:40;;;;;;;16.73;10.97;;;;;;;;;;5039643;28;20468;-53
2021/06/04 09:15:09;;;;;;;17.30;12.73;;;;;;;;;;5032127;28;20494;-59
2021/06/04 09:17:42;;;;;;;21.47;11.37;;;;;;;;;;5036267;28;20761;-58
2021/06/04 09:20:16;;;;;;;12.70;10.73;;;;;;;;;;5045163;28;20448;-56
2021/06/04 09:22:48;;;;;;;15.67;12.63;;;;;;;;;;5035082;28;21030;-54
2021/06/04 09:25:44;;;;;;;15.00;11.17;;;;;;;;;;5039471;28;20459;-59
2021/06/04 09:28:20;;;;;;;16.33;11.43;;;;;;;;;;5037054;28;20470;-58
2021/06/04 09:30:50;;;;;;;18.80;11.37;;;;;;;;;;5042613;28;20462;-58
2021/06/04 09:33:23;;;;;;;18.30;13.77;;;;;;;;;;5035011;28;20603;-55
2021/06/04 09:36:00;;;;;;;17.83;12.63;;;;;;;;;;5052324;28;20486;-58
2021/06/04 09:38:29;;;;;;;15.03;12.30;;;;;;;;;;5036695;28;20485;-56
2021/06/04 09:40:58;;;;;;;12.97;11.57;;;;;;;;;;5032567;28;20462;-59
2021/06/04 09:43:31;;;;;;;16.00;11.03;;;;;;;;;;5030422;28;20478;-56
2021/06/04 09:46:08;;;;;;;18.40;11.80;;;;;;;;;;5033679;28;20479;-59
2021/06/04 09:48:42;;;;;;;12.17;10.70;;;;;;;;;;5048936;28;20434;-55
2021/06/04 09:51:15;;;;;;;15.23;10.43;;;;;;;;;;5052535;28;20482;-57
2021/06/04 09:53:44;;;;;;;12.37;9.13;;;;;;;;;;5040689;28;20481;-56
2021/06/04 09:56:18;;;;;;;15.83;11.13;;;;;;;;;;5049084;28;20581;-59
2021/06/04 09:58:56;;;;;;;15.40;11.07;;;;;;;;;;5052985;28;20545;-61
2021/06/04 10:01:23;;;;;;;12.60;11.10;;;;;;;;;;5052853;28;20461;-59
2021/06/04 10:03:56;;;;;;;21.17;11.73;;;;;;;;;;5052465;28;20972;-55
2021/06/04 10:06:30;;;;;;;17.47;11.97;;;;;;;;;;5052079;28;20450;-61
2021/06/04 10:08:59;;;;;;;13.27;11.20;;;;;;;;;;5042116;28;20462;-57
2021/06/04 10:11:31;;;;;;;14.90;11.93;;;;;;;;;;5046299;28;20486;-59
2021/06/04 10:14:05;;;;;;;18.07;11.63;;;;;;;;;;5052962;28;20549;-58
2021/06/04 10:19:32;;;;;;;13.67;10.30;;;;;;;;;;5013817;28;20438;-60
2021/06/04 10:22:18;;;;;;;14.50;11.40;;;;;;;;;;5033315;28;20477;-59
2021/06/04 10:24:46;;;;;;;17.00;12.60;;;;;;;;;;5052809;28;20553;-57
2021/06/04 10:27:23;;;;;;;11.83;10.60;;;;;;;;;;5046339;28;20465;-59
2021/06/04 10:29:59;;;;;;;14.30;10.33;;;;;;;;;;5033108;28;20446;-54
2021/06/04 10:32:31;;;;;;;15.70;10.93;;;;;;;;;;5032174;28;20461;-59
2021/06/04 10:35:13;;;;;;;21.57;11.37;;;;;;;;;;5039935;28;20462;-56
2021/06/04 10:37:42;;;;;;;16.00;10.70;;;;;;;;;;5032541;28;20541;-54
2021/06/04 10:40:16;;;;;;;14.47;9.73;;;;;;;;;;5034052;28;20450;-60
2021/06/04 10:43:06;;;;;;;17.93;11.10;;;;;;;;;;5052903;28;20533;-59
2021/06/04 10:45:41;;;;;;;15.27;11.10;;;;;;;;;;5045567;28;20501;-60
2021/06/04 10:48:31;;;;;;;14.53;11.63;;;;;;;;;;5049914;28;20453;-55
2021/06/04 10:51:03;;;;;;;13.53;9.63;;;;;;;;;;5052375;28;20481;-58
2021/06/04 10:53:37;;;;;;;9.90;8.90;;;;;;;;;;5044765;28;20487;-58
2021/06/04 10:56:07;;;;;;;12.00;8.90;;;;;;;;;;5032342;28;20490;-57
2021/06/04 10:58:41;;;;;;;14.93;10.30;;;;;;;;;;5048881;28;20461;-55
2021/06/04 11:01:10;;;;;;;13.50;9.43;;;;;;;;;;5036837;28;20431;-58
2021/06/04 11:03:39;;;;;;;11.50;9.73;;;;;;;;;;5045392;28;20537;-58
2021/06/04 11:06:14;;;;;;;13.30;9.40;;;;;;;;;;5039403;28;20461;-58
2021/06/04 11:08:49;;;;;;;11.53;10.10;;;;;;;;;;5036210;28;20527;-57
2021/06/04 11:14:43;;;;;;;12.93;11.40;;;;;;;;;;5036707;28;20426;-58
2021/06/04 11:17:28;;;;;;;14.77;10.03;;;;;;;;;;5042721;28;20517;-60
2021/06/04 11:20:26;;;;;;;14.97;12.07;;;;;;;;;;5035661;28;20518;-59
2021/06/04 11:23:04;;;;;;;12.90;11.60;;;;;;;;;;5031818;28;20452;-59
2021/06/04 11:25:45;;;;;;;11.30;8.70;;;;;;;;;;5044570;28;20469;-59
2021/06/04 11:28:24;;;;;;;11.53;10.33;;;;;;;;;;5047864;28;20462;-57
2021/06/04 11:31:10;;;;;;;11.67;10.37;;;;;;;;;;5049077;28;20452;-60
2021/06/04 11:33:40;;;;;;;12.70;11.50;;;;;;;;;;5049729;28;20564;-56
2021/06/04 11:36:12;;;;;;;14.87;12.17;;;;;;;;;;5040530;28;20486;-60
2021/06/04 11:38:41;;;;;;;12.20;10.67;;;;;;;;;;5038928;28;20483;-56
2021/06/04 11:41:16;;;;;;;13.17;9.30;;;;;;;;;;5044407;28;20509;-61
2021/06/04 11:43:46;;;;;;;11.37;9.67;;;;;;;;;;5047632;28;20524;-60
2021/06/04 11:46:28;;;;;;;11.73;9.37;;;;;;;;;;5047811;28;20456;-60
2021/06/04 11:49:06;;;;;;;14.03;10.10;;;;;;;;;;5041561;28;20538;-60
2021/06/04 11:51:40;;;;;;;11.77;10.57;;;;;;;;;;5044938;28;20499;-59
2021/06/04 11:54:29;;;;;;;16.03;10.27;;;;;;;;;;5043900;28;20746;-55
2021/06/04 11:56:59;;;;;;;12.90;10.80;;;;;;;;;;5034800;28;20506;-60
2021/06/04 11:59:45;;;;;;;14.17;12.67;;;;;;;;;;5043952;28;20473;-55
2021/06/04 12:02:26;;;;;;;17.80;12.20;;;;;;;;;;5050568;28;20450;-65
2021/06/04 12:05:06;;;;;;;10.73;8.87;;;;;;;;;;5050228;28;20547;-60
2021/06/04 12:07:39;;;;;;;15.53;11.40;;;;;;;;;;5050584;28;20458;-53
2021/06/04 12:10:18;;;;;;;13.20;11.90;;;;;;;;;;5042948;28;20462;-56
2021/06/04 12:13:00;;;;;;;13.03;10.30;;;;;;;;;;5045182;28;20466;-58
2021/06/04 12:15:55;;;;;;;15.83;11.73;;;;;;;;;;5047738;28;20493;-54
2021/06/04 12:18:37;;;;;;;16.40;9.30;;;;;;;;;;5039022;28;20449;-60
2021/06/04 12:21:05;;;;;;;12.10;9.23;;;;;;;;;;5033102;28;20493;-56
2021/06/04 12:23:42;;;;;;;12.87;10.03;;;;;;;;;;5030318;28;20454;-61
2021/06/04 12:26:10;;;;;;;11.60;9.90;;;;;;;;;;5041179;28;20729;-56
2021/06/04 12:28:42;;;;;;;11.40;10.10;;;;;;;;;;5038720;28;20450;-59
2021/06/04 12:31:30;;;;;;;10.87;9.77;;;;;;;;;;5049806;28;20449;-57
2021/06/04 12:34:04;;;;;;;12.57;9.43;;;;;;;;;;5034257;28;20458;-51
2021/06/04 12:37:11;;;;;;;12.50;9.47;;;;;;;;;;5032087;28;20486;-61
2021/06/04 12:39:51;;;;;;;12.90;9.17;;;;;;;;;;5045173;28;20536;-57
2021/06/04 12:42:36;;;;;;;12.03;10.60;;;;;;;;;;5048595;28;20449;-58
2021/06/04 12:45:09;;;;;;;10.80;9.27;;;;;;;;;;5042547;28;20935;-61
2021/06/04 12:47:40;;;;;;;12.13;9.27;;;;;;;;;;5053978;28;20458;-56
2021/06/04 12:50:10;;;;;;;14.37;11.10;;;;;;;;;;5040607;28;20465;-56
2021/06/04 12:52:37;;;;;;;13.57;9.00;;;;;;;;;;5053727;28;20766;-58
2021/06/04 12:55:18;;;;;;;14.77;12.07;;;;;;;;;;5051627;28;20463;-59
2021/06/04 12:57:57;;;;;;;10.90;9.73;;;;;;;;;;5049829;28;20448;-56
2021/06/04 13:00:41;;;;;;;11.30;9.60;;;;;;;;;;5051608;28;20553;-59
2021/06/04 13:03:17;;;;;;;14.53;11.10;;;;;;;;;;5044206;28;20491;-55
2021/06/04 13:05:46;;;;;;;12.20;10.43;;;;;;;;;;5045769;28;20527;-55
2021/06/04 13:08:37;;;;;;;17.70;11.67;;;;;;;;;;5053525;28;20529;-57
2021/06/04 13:11:07;;;;;;;11.43;10.27;;;;;;;;;;5045766;28;20484;-54
2021/06/04 13:13:38;;;;;;;10.20;9.17;;;;;;;;;;5049462;28;20575;-61
2021/06/04 13:16:21;;;;;;;10.70;8.93;;;;;;;;;;5051004;28;20495;-61
2021/06/04 13:18:52;;;;;;;16.87;14.60;;;;;;;;;;5032744;28;20470;-59
2021/06/04 13:21:22;;;;;;;15.50;10.47;;;;;;;;;;5043913;28;20493;-58
2021/06/04 13:24:02;;;;;;;12.47;9.33;;;;;;;;;;5031696;28;20461;-57
2021/06/04 13:26:33;;;;;;;14.50;11.33;;;;;;;;;;5037918;28;20480;-57
2021/06/04 13:29:04;;;;;;;12.33;10.27;;;;;;;;;;5041241;28;20465;-60
2021/06/04 13:31:55;;;;;;;13.37;9.97;;;;;;;;;;5042476;28;20453;-60
2021/06/04 13:34:27;;;;;;;11.83;9.17;;;;;;;;;;5046599;28;20469;-57
2021/06/04 13:36:57;;;;;;;11.77;10.17;;;;;;;;;;5043947;28;20478;-55
2021/06/04 13:39:37;;;;;;;12.80;10.73;;;;;;;;;;5043902;28;20465;-60
2021/06/04 13:42:11;;;;;;;14.07;8.23;;;;;;;;;;5045910;28;20485;-59
2021/06/04 13:44:37;;;;;;;10.40;9.20;;;;;;;;;;5046511;28;20473;-55
2021/06/04 13:47:06;;;;;;;10.97;9.37;;;;;;;;;;5039912;28;20465;-58
2021/06/04 13:49:36;;;;;;;12.93;11.63;;;;;;;;;;5045170;28;20473;-58
2021/06/04 13:52:04;;;;;;;12.37;10.50;;;;;;;;;;5053032;28;20521;-59
2021/06/04 13:54:51;;;;;;;15.20;12.70;;;;;;;;;;5043663;28;20492;-57
2021/06/04 13:57:41;;;;;;;14.10;12.60;;;;;;;;;;5045368;28;20497;-53
2021/06/04 14:00:17;;;;;;;13.97;10.17;;;;;;;;;;5052768;28;20487;-59
2021/06/04 14:02:45;;;;;;;11.80;9.70;;;;;;;;;;5052858;28;20524;-57
2021/06/04 14:05:29;;;;;;;17.03;14.83;;;;;;;;;;5037815;28;20892;-57
2021/06/04 14:08:08;;;;;;;19.20;13.30;;;;;;;;;;5052552;28;20454;-58
2021/06/04 14:10:57;;;;;;;11.17;9.97;;;;;;;;;;5044277;28;20462;-56
2021/06/04 14:16:32;;;;;;;10.90;9.63;;;;;;;;;;5043202;28;20481;-56
2021/06/04 14:19:08;;;;;;;12.40;10.20;;;;;;;;;;5040252;28;20463;-60
2021/06/04 14:21:57;;;;;;;13.07;10.97;;;;;;;;;;5030897;28;20514;-59
2021/06/04 14:24:49;;;;;;;10.17;8.53;;;;;;;;;;5044871;28;20462;-60
2021/06/04 14:27:37;;;;;;;11.40;10.20;;;;;;;;;;5038653;28;20493;-60
2021/06/04 14:30:15;;;;;;;11.47;10.30;;;;;;;;;;5016584;28;20461;-62
2021/06/04 14:32:59;;;;;;;12.70;11.40;;;;;;;;;;5030398;28;20464;-58
2021/06/04 14:35:34;;;;;;;11.17;9.40;;;;;;;;;;5028375;28;20461;-56
2021/06/04 14:38:01;;;;;;;22.73;15.43;;;;;;;;;;5045677;28;20460;-60
2021/06/04 14:40:44;;;;;;;19.67;9.80;;;;;;;;;;5047109;28;20559;-57
2021/06/04 14:43:12;;;;;;;13.40;9.73;;;;;;;;;;5044863;28;20528;-59
2021/06/04 14:45:43;;;;;;;18.70;12.93;;;;;;;;;;5043976;28;20584;-62
2021/06/04 14:48:21;;;;;;;13.90;12.40;;;;;;;;;;5044304;28;20489;-59
2021/06/04 14:50:48;;;;;;;14.13;11.10;;;;;;;;;;5034216;28;20485;-61
2021/06/04 14:53:22;;;;;;;16.50;13.87;;;;;;;;;;5044120;28;20504;-58
2021/06/04 14:55:50;;;;;;;12.40;11.20;;;;;;;;;;5041771;28;20502;-56
2021/06/04 14:58:19;;;;;;;12.43;11.23;;;;;;;;;;5036285;28;20561;-60
2021/06/04 15:00:59;;;;;;;13.47;12.10;;;;;;;;;;5044384;28;20467;-60
2021/06/04 15:03:27;;;;;;;16.50;11.80;;;;;;;;;;5049327;28;20461;-57
2021/06/04 15:05:56;;;;;;;12.83;11.47;;;;;;;;;;5046339;28;20462;-59
2021/06/04 15:08:24;;;;;;;14.23;12.63;;;;;;;;;;5044783;28;20462;-55
2021/06/04 15:10:52;;;;;;;15.40;12.80;;;;;;;;;;5051057;28;20458;-60
2021/06/04 15:13:24;;;;;;;13.33;11.20;;;;;;;;;;5050935;28;20494;-59
2021/06/04 15:15:51;;;;;;;10.93;9.73;;;;;;;;;;5049620;28;20486;-56